sensor_id;sensor_type;location;lat;lon;timestamp;P1;durP1;ratioP1;P2;durP2;ratioP2
79229;SDS011;68663;49.122;17.544;2023-07-30T00:01:47;3.00;;;2.20;;
79229;SDS011;68663;49.122;17.544;2023-07-30T00:04:12;3.55;;;2.30;;
79229;SDS011;68663;49.122;17.544;2023-07-30T00:06:38;2.83;;;2.10;;
79229;SDS011;68663;49.122;17.544;2023-07-30T00:09:03;3.65;;;2.13;;
79229;SDS011;68663;49.122;17.544;2023-07-30T00:11:29;3.35;;;2.50;;
79229;SDS011;68663;49.122;17.544;2023-07-30T00:13:54;3.70;;;2.45;;
79229;SDS011;68663;49.122;17.544;2023-07-30T00:16:20;3.17;;;2.30;;
79229;SDS011;68663;49.122;17.544;2023-07-30T00:18:45;3.47;;;2.10;;
79229;SDS011;68663;49.122;17.544;2023-07-30T00:21:11;4.65;;;2.28;;
79229;SDS011;68663;49.122;17.544;2023-07-30T00:23:36;2.92;;;2.20;;
79229;SDS011;68663;49.122;17.544;2023-07-30T00:26:01;2.75;;;2.30;;
79229;SDS011;68663;49.122;17.544;2023-07-30T00:28:27;4.85;;;2.28;;
79229;SDS011;68663;49.122;17.544;2023-07-30T00:30:52;3.00;;;2.40;;
79229;SDS011;68663;49.122;17.544;2023-07-30T00:33:18;4.07;;;2.05;;
79229;SDS011;68663;49.122;17.544;2023-07-30T00:35:43;3.42;;;2.20;;
79229;SDS011;68663;49.122;17.544;2023-07-30T00:38:09;4.40;;;2.40;;
79229;SDS011;68663;49.122;17.544;2023-07-30T00:40:39;3.67;;;2.30;;
79229;SDS011;68663;49.122;17.544;2023-07-30T00:43:05;3.20;;;2.00;;
79229;SDS011;68663;49.122;17.544;2023-07-30T00:45:30;3.40;;;2.60;;
79229;SDS011;68663;49.122;17.544;2023-07-30T00:47:56;6.10;;;2.30;;
79229;SDS011;68663;49.122;17.544;2023-07-30T00:50:22;3.00;;;2.25;;
79229;SDS011;68663;49.122;17.544;2023-07-30T00:52:48;6.10;;;2.78;;
79229;SDS011;68663;49.122;17.544;2023-07-30T00:55:13;4.22;;;2.47;;
79229;SDS011;68663;49.122;17.544;2023-07-30T00:57:40;4.32;;;2.53;;
79229;SDS011;68663;49.122;17.544;2023-07-30T01:00:06;3.40;;;2.35;;
79229;SDS011;68663;49.122;17.544;2023-07-30T01:02:34;2.90;;;2.15;;
79229;SDS011;68663;49.122;17.544;2023-07-30T01:05:00;2.67;;;2.03;;
79229;SDS011;68663;49.122;17.544;2023-07-30T01:07:26;4.05;;;2.53;;
79229;SDS011;68663;49.122;17.544;2023-07-30T01:09:52;2.72;;;2.17;;
79229;SDS011;68663;49.122;17.544;2023-07-30T01:12:17;3.05;;;2.30;;
79229;SDS011;68663;49.122;17.544;2023-07-30T01:14:44;2.97;;;2.13;;
79229;SDS011;68663;49.122;17.544;2023-07-30T01:17:11;2.75;;;2.20;;
79229;SDS011;68663;49.122;17.544;2023-07-30T01:19:36;3.35;;;2.10;;
79229;SDS011;68663;49.122;17.544;2023-07-30T01:22:02;4.38;;;2.83;;
79229;SDS011;68663;49.122;17.544;2023-07-30T01:24:28;4.40;;;2.30;;
79229;SDS011;68663;49.122;17.544;2023-07-30T01:26:59;4.03;;;2.35;;
79229;SDS011;68663;49.122;17.544;2023-07-30T01:29:28;4.60;;;2.53;;
79229;SDS011;68663;49.122;17.544;2023-07-30T01:32:04;2.83;;;2.30;;
79229;SDS011;68663;49.122;17.544;2023-07-30T01:34:34;3.30;;;2.28;;
79229;SDS011;68663;49.122;17.544;2023-07-30T01:37:01;4.25;;;2.58;;
79229;SDS011;68663;49.122;17.544;2023-07-30T01:39:27;3.45;;;2.30;;
79229;SDS011;68663;49.122;17.544;2023-07-30T01:41:54;2.50;;;2.17;;
79229;SDS011;68663;49.122;17.544;2023-07-30T01:44:20;3.10;;;2.42;;
79229;SDS011;68663;49.122;17.544;2023-07-30T01:46:45;4.13;;;2.58;;
79229;SDS011;68663;49.122;17.544;2023-07-30T01:49:11;3.42;;;2.20;;
79229;SDS011;68663;49.122;17.544;2023-07-30T01:51:36;4.68;;;2.80;;
79229;SDS011;68663;49.122;17.544;2023-07-30T01:54:01;4.30;;;2.60;;
79229;SDS011;68663;49.122;17.544;2023-07-30T01:56:27;4.80;;;3.20;;
79229;SDS011;68663;49.122;17.544;2023-07-30T01:58:53;4.32;;;2.60;;
79229;SDS011;68663;49.122;17.544;2023-07-30T02:01:18;3.38;;;2.33;;
79229;SDS011;68663;49.122;17.544;2023-07-30T02:03:44;4.38;;;2.47;;
79229;SDS011;68663;49.122;17.544;2023-07-30T02:06:09;3.75;;;2.50;;
79229;SDS011;68663;49.122;17.544;2023-07-30T02:08:36;3.80;;;2.55;;
79229;SDS011;68663;49.122;17.544;2023-07-30T02:11:02;2.80;;;2.30;;
79229;SDS011;68663;49.122;17.544;2023-07-30T02:13:27;3.50;;;2.00;;
79229;SDS011;68663;49.122;17.544;2023-07-30T02:15:53;2.90;;;2.22;;
79229;SDS011;68663;49.122;17.544;2023-07-30T02:18:18;4.88;;;2.45;;
79229;SDS011;68663;49.122;17.544;2023-07-30T02:20:44;4.68;;;2.50;;
79229;SDS011;68663;49.122;17.544;2023-07-30T02:23:09;2.83;;;2.42;;
79229;SDS011;68663;49.122;17.544;2023-07-30T02:25:35;3.00;;;2.35;;
79229;SDS011;68663;49.122;17.544;2023-07-30T02:28:00;3.85;;;2.25;;
79229;SDS011;68663;49.122;17.544;2023-07-30T02:30:27;2.88;;;2.20;;
79229;SDS011;68663;49.122;17.544;2023-07-30T02:32:53;3.25;;;2.30;;
79229;SDS011;68663;49.122;17.544;2023-07-30T02:35:18;4.55;;;2.65;;
79229;SDS011;68663;49.122;17.544;2023-07-30T02:37:44;2.95;;;2.10;;
79229;SDS011;68663;49.122;17.544;2023-07-30T02:40:09;2.92;;;2.28;;
79229;SDS011;68663;49.122;17.544;2023-07-30T02:42:35;2.80;;;2.20;;
79229;SDS011;68663;49.122;17.544;2023-07-30T02:45:01;2.78;;;2.03;;
79229;SDS011;68663;49.122;17.544;2023-07-30T02:47:26;4.28;;;2.50;;
79229;SDS011;68663;49.122;17.544;2023-07-30T02:49:52;4.83;;;2.30;;
79229;SDS011;68663;49.122;17.544;2023-07-30T02:52:17;4.05;;;2.60;;
79229;SDS011;68663;49.122;17.544;2023-07-30T02:54:42;3.20;;;2.38;;
79229;SDS011;68663;49.122;17.544;2023-07-30T02:57:08;3.17;;;2.28;;
79229;SDS011;68663;49.122;17.544;2023-07-30T02:59:33;4.20;;;2.15;;
79229;SDS011;68663;49.122;17.544;2023-07-30T03:02:03;4.75;;;2.65;;
79229;SDS011;68663;49.122;17.544;2023-07-30T03:04:32;2.67;;;2.17;;
79229;SDS011;68663;49.122;17.544;2023-07-30T03:06:58;3.83;;;2.35;;
79229;SDS011;68663;49.122;17.544;2023-07-30T03:09:23;4.45;;;2.10;;
79229;SDS011;68663;49.122;17.544;2023-07-30T03:11:49;4.60;;;2.63;;
79229;SDS011;68663;49.122;17.544;2023-07-30T03:14:15;4.68;;;2.15;;
79229;SDS011;68663;49.122;17.544;2023-07-30T03:16:40;3.42;;;2.22;;
79229;SDS011;68663;49.122;17.544;2023-07-30T03:19:06;4.07;;;2.58;;
79229;SDS011;68663;49.122;17.544;2023-07-30T03:21:31;3.22;;;2.10;;
79229;SDS011;68663;49.122;17.544;2023-07-30T03:23:57;4.47;;;2.55;;
79229;SDS011;68663;49.122;17.544;2023-07-30T03:26:22;3.38;;;2.00;;
79229;SDS011;68663;49.122;17.544;2023-07-30T03:28:48;3.35;;;2.13;;
79229;SDS011;68663;49.122;17.544;2023-07-30T03:31:13;3.03;;;2.28;;
79229;SDS011;68663;49.122;17.544;2023-07-30T03:33:39;4.05;;;2.13;;
79229;SDS011;68663;49.122;17.544;2023-07-30T03:36:08;3.00;;;2.70;;
79229;SDS011;68663;49.122;17.544;2023-07-30T03:38:38;3.03;;;2.30;;
79229;SDS011;68663;49.122;17.544;2023-07-30T03:41:04;3.95;;;2.50;;
79229;SDS011;68663;49.122;17.544;2023-07-30T03:43:31;4.38;;;2.40;;
79229;SDS011;68663;49.122;17.544;2023-07-30T03:45:56;4.22;;;2.17;;
79229;SDS011;68663;49.122;17.544;2023-07-30T03:48:22;4.38;;;2.50;;
79229;SDS011;68663;49.122;17.544;2023-07-30T03:50:47;3.60;;;2.13;;
79229;SDS011;68663;49.122;17.544;2023-07-30T03:53:13;3.42;;;2.30;;
79229;SDS011;68663;49.122;17.544;2023-07-30T03:55:38;3.67;;;2.22;;
79229;SDS011;68663;49.122;17.544;2023-07-30T03:58:04;3.00;;;2.50;;
79229;SDS011;68663;49.122;17.544;2023-07-30T04:00:29;3.00;;;2.40;;
79229;SDS011;68663;49.122;17.544;2023-07-30T04:02:55;2.97;;;2.10;;
79229;SDS011;68663;49.122;17.544;2023-07-30T04:05:20;2.92;;;2.38;;
79229;SDS011;68663;49.122;17.544;2023-07-30T04:07:46;3.53;;;2.55;;
79229;SDS011;68663;49.122;17.544;2023-07-30T04:10:11;2.95;;;2.20;;
79229;SDS011;68663;49.122;17.544;2023-07-30T04:12:37;3.97;;;2.33;;
79229;SDS011;68663;49.122;17.544;2023-07-30T04:15:02;4.97;;;2.27;;
79229;SDS011;68663;49.122;17.544;2023-07-30T04:17:27;4.45;;;2.80;;
79229;SDS011;68663;49.122;17.544;2023-07-30T04:19:53;3.63;;;2.70;;
79229;SDS011;68663;49.122;17.544;2023-07-30T04:22:18;4.93;;;2.70;;
79229;SDS011;68663;49.122;17.544;2023-07-30T04:24:44;3.63;;;2.42;;
79229;SDS011;68663;49.122;17.544;2023-07-30T04:27:09;4.75;;;2.72;;
79229;SDS011;68663;49.122;17.544;2023-07-30T04:29:34;4.40;;;2.55;;
79229;SDS011;68663;49.122;17.544;2023-07-30T04:32:00;5.07;;;2.35;;
79229;SDS011;68663;49.122;17.544;2023-07-30T04:34:25;3.88;;;2.88;;
79229;SDS011;68663;49.122;17.544;2023-07-30T04:36:51;4.70;;;2.50;;
79229;SDS011;68663;49.122;17.544;2023-07-30T04:39:16;5.10;;;2.73;;
79229;SDS011;68663;49.122;17.544;2023-07-30T04:41:42;2.80;;;2.45;;
79229;SDS011;68663;49.122;17.544;2023-07-30T04:44:07;3.95;;;2.60;;
79229;SDS011;68663;49.122;17.544;2023-07-30T04:46:32;4.13;;;2.40;;
79229;SDS011;68663;49.122;17.544;2023-07-30T04:48:58;3.88;;;2.67;;
79229;SDS011;68663;49.122;17.544;2023-07-30T04:51:26;5.07;;;2.97;;
79229;SDS011;68663;49.122;17.544;2023-07-30T04:53:51;4.97;;;2.42;;
79229;SDS011;68663;49.122;17.544;2023-07-30T04:56:17;3.15;;;2.40;;
79229;SDS011;68663;49.122;17.544;2023-07-30T04:58:42;4.47;;;2.60;;
79229;SDS011;68663;49.122;17.544;2023-07-30T05:01:08;4.63;;;2.80;;
79229;SDS011;68663;49.122;17.544;2023-07-30T05:03:33;3.63;;;2.30;;
79229;SDS011;68663;49.122;17.544;2023-07-30T05:05:59;3.70;;;2.70;;
79229;SDS011;68663;49.122;17.544;2023-07-30T05:08:24;5.50;;;2.60;;
79229;SDS011;68663;49.122;17.544;2023-07-30T05:10:50;3.13;;;2.58;;
79229;SDS011;68663;49.122;17.544;2023-07-30T05:13:15;3.47;;;2.80;;
79229;SDS011;68663;49.122;17.544;2023-07-30T05:15:40;3.28;;;2.63;;
79229;SDS011;68663;49.122;17.544;2023-07-30T05:18:06;3.33;;;2.60;;
79229;SDS011;68663;49.122;17.544;2023-07-30T05:20:32;3.72;;;2.92;;
79229;SDS011;68663;49.122;17.544;2023-07-30T05:22:57;5.57;;;2.95;;
79229;SDS011;68663;49.122;17.544;2023-07-30T05:25:23;4.38;;;2.70;;
79229;SDS011;68663;49.122;17.544;2023-07-30T05:27:48;2.75;;;2.30;;
79229;SDS011;68663;49.122;17.544;2023-07-30T05:30:14;4.15;;;2.72;;
79229;SDS011;68663;49.122;17.544;2023-07-30T05:32:39;4.50;;;2.40;;
79229;SDS011;68663;49.122;17.544;2023-07-30T05:35:04;4.37;;;2.47;;
79229;SDS011;68663;49.122;17.544;2023-07-30T05:37:30;3.95;;;2.60;;
79229;SDS011;68663;49.122;17.544;2023-07-30T05:39:56;3.58;;;2.83;;
79229;SDS011;68663;49.122;17.544;2023-07-30T05:42:21;3.42;;;2.40;;
79229;SDS011;68663;49.122;17.544;2023-07-30T05:44:47;4.05;;;2.63;;
79229;SDS011;68663;49.122;17.544;2023-07-30T05:47:12;4.45;;;2.92;;
79229;SDS011;68663;49.122;17.544;2023-07-30T05:49:38;3.55;;;2.53;;
79229;SDS011;68663;49.122;17.544;2023-07-30T05:52:04;3.28;;;2.60;;
79229;SDS011;68663;49.122;17.544;2023-07-30T05:54:30;4.13;;;2.90;;
79229;SDS011;68663;49.122;17.544;2023-07-30T05:56:56;3.50;;;2.80;;
79229;SDS011;68663;49.122;17.544;2023-07-30T05:59:21;3.58;;;2.47;;
79229;SDS011;68663;49.122;17.544;2023-07-30T06:01:46;3.80;;;2.30;;
79229;SDS011;68663;49.122;17.544;2023-07-30T06:04:12;3.43;;;2.80;;
79229;SDS011;68663;49.122;17.544;2023-07-30T06:06:37;3.05;;;2.55;;
79229;SDS011;68663;49.122;17.544;2023-07-30T06:09:03;3.83;;;2.80;;
79229;SDS011;68663;49.122;17.544;2023-07-30T06:11:28;3.57;;;2.47;;
79229;SDS011;68663;49.122;17.544;2023-07-30T06:13:54;3.70;;;2.83;;
79229;SDS011;68663;49.122;17.544;2023-07-30T06:16:19;4.57;;;2.70;;
79229;SDS011;68663;49.122;17.544;2023-07-30T06:18:47;5.82;;;3.10;;
79229;SDS011;68663;49.122;17.544;2023-07-30T06:21:13;3.63;;;2.70;;
79229;SDS011;68663;49.122;17.544;2023-07-30T06:23:38;3.38;;;2.67;;
79229;SDS011;68663;49.122;17.544;2023-07-30T06:26:03;5.67;;;2.83;;
79229;SDS011;68663;49.122;17.544;2023-07-30T06:28:29;4.78;;;2.88;;
79229;SDS011;68663;49.122;17.544;2023-07-30T06:30:54;3.47;;;3.05;;
79229;SDS011;68663;49.122;17.544;2023-07-30T06:33:20;3.83;;;2.80;;
79229;SDS011;68663;49.122;17.544;2023-07-30T06:35:45;8.10;;;3.78;;
79229;SDS011;68663;49.122;17.544;2023-07-30T06:38:11;20.02;;;7.05;;
79229;SDS011;68663;49.122;17.544;2023-07-30T06:40:36;44.08;;;13.95;;
79229;SDS011;68663;49.122;17.544;2023-07-30T06:43:01;40.03;;;12.00;;
79229;SDS011;68663;49.122;17.544;2023-07-30T06:45:27;38.75;;;12.88;;
79229;SDS011;68663;49.122;17.544;2023-07-30T06:47:53;41.65;;;12.98;;
79229;SDS011;68663;49.122;17.544;2023-07-30T06:50:18;28.10;;;9.77;;
79229;SDS011;68663;49.122;17.544;2023-07-30T06:52:44;32.15;;;11.05;;
79229;SDS011;68663;49.122;17.544;2023-07-30T06:55:09;37.80;;;12.43;;
79229;SDS011;68663;49.122;17.544;2023-07-30T06:57:35;30.23;;;11.45;;
79229;SDS011;68663;49.122;17.544;2023-07-30T07:00:00;7.15;;;4.13;;
79229;SDS011;68663;49.122;17.544;2023-07-30T07:02:26;25.42;;;9.40;;
79229;SDS011;68663;49.122;17.544;2023-07-30T07:04:53;20.63;;;6.43;;
79229;SDS011;68663;49.122;17.544;2023-07-30T07:07:19;21.85;;;8.68;;
79229;SDS011;68663;49.122;17.544;2023-07-30T07:09:45;11.75;;;5.88;;
79229;SDS011;68663;49.122;17.544;2023-07-30T07:12:11;22.38;;;7.68;;
79229;SDS011;68663;49.122;17.544;2023-07-30T07:14:36;23.00;;;8.10;;
79229;SDS011;68663;49.122;17.544;2023-07-30T07:17:02;20.45;;;8.20;;
79229;SDS011;68663;49.122;17.544;2023-07-30T07:19:28;19.00;;;7.90;;
79229;SDS011;68663;49.122;17.544;2023-07-30T07:21:53;19.85;;;7.88;;
79229;SDS011;68663;49.122;17.544;2023-07-30T07:24:19;17.27;;;6.68;;
79229;SDS011;68663;49.122;17.544;2023-07-30T07:26:44;19.97;;;7.40;;
79229;SDS011;68663;49.122;17.544;2023-07-30T07:29:10;17.38;;;6.30;;
79229;SDS011;68663;49.122;17.544;2023-07-30T07:31:35;17.75;;;7.22;;
79229;SDS011;68663;49.122;17.544;2023-07-30T07:34:01;14.05;;;6.05;;
79229;SDS011;68663;49.122;17.544;2023-07-30T07:36:26;15.05;;;6.10;;
79229;SDS011;68663;49.122;17.544;2023-07-30T07:38:52;14.95;;;6.18;;
79229;SDS011;68663;49.122;17.544;2023-07-30T07:41:17;18.75;;;7.35;;
79229;SDS011;68663;49.122;17.544;2023-07-30T07:43:43;12.38;;;6.18;;
79229;SDS011;68663;49.122;17.544;2023-07-30T07:46:09;12.35;;;5.35;;
79229;SDS011;68663;49.122;17.544;2023-07-30T07:48:41;6.72;;;4.00;;
79229;SDS011;68663;49.122;17.544;2023-07-30T07:51:08;10.43;;;4.40;;
79229;SDS011;68663;49.122;17.544;2023-07-30T07:53:35;9.15;;;3.97;;
79229;SDS011;68663;49.122;17.544;2023-07-30T07:56:01;10.43;;;4.15;;
79229;SDS011;68663;49.122;17.544;2023-07-30T07:58:27;8.70;;;4.57;;
79229;SDS011;68663;49.122;17.544;2023-07-30T08:00:56;11.20;;;5.55;;
79229;SDS011;68663;49.122;17.544;2023-07-30T08:03:22;6.70;;;3.90;;
79229;SDS011;68663;49.122;17.544;2023-07-30T08:05:48;8.43;;;4.45;;
79229;SDS011;68663;49.122;17.544;2023-07-30T08:08:14;6.25;;;3.92;;
79229;SDS011;68663;49.122;17.544;2023-07-30T08:10:40;7.47;;;4.47;;
79229;SDS011;68663;49.122;17.544;2023-07-30T08:13:08;6.70;;;3.38;;
79229;SDS011;68663;49.122;17.544;2023-07-30T08:15:37;7.70;;;3.83;;
79229;SDS011;68663;49.122;17.544;2023-07-30T08:18:03;4.70;;;3.50;;
79229;SDS011;68663;49.122;17.544;2023-07-30T08:20:28;10.90;;;4.70;;
79229;SDS011;68663;49.122;17.544;2023-07-30T08:22:54;7.13;;;4.65;;
79229;SDS011;68663;49.122;17.544;2023-07-30T08:25:19;7.97;;;3.92;;
79229;SDS011;68663;49.122;17.544;2023-07-30T08:27:45;7.78;;;4.15;;
79229;SDS011;68663;49.122;17.544;2023-07-30T08:30:11;8.70;;;3.92;;
79229;SDS011;68663;49.122;17.544;2023-07-30T08:32:37;6.93;;;3.78;;
79229;SDS011;68663;49.122;17.544;2023-07-30T08:35:03;9.27;;;3.75;;
79229;SDS011;68663;49.122;17.544;2023-07-30T08:37:29;7.25;;;3.95;;
79229;SDS011;68663;49.122;17.544;2023-07-30T08:39:54;5.47;;;3.42;;
79229;SDS011;68663;49.122;17.544;2023-07-30T08:42:20;10.70;;;3.88;;
79229;SDS011;68663;49.122;17.544;2023-07-30T08:44:46;5.65;;;3.67;;
79229;SDS011;68663;49.122;17.544;2023-07-30T08:47:11;5.13;;;3.53;;
79229;SDS011;68663;49.122;17.544;2023-07-30T08:49:38;6.07;;;3.30;;
79229;SDS011;68663;49.122;17.544;2023-07-30T08:52:04;7.90;;;3.53;;
79229;SDS011;68663;49.122;17.544;2023-07-30T08:54:33;7.40;;;3.25;;
79229;SDS011;68663;49.122;17.544;2023-07-30T08:56:59;6.53;;;3.45;;
79229;SDS011;68663;49.122;17.544;2023-07-30T08:59:27;7.55;;;3.00;;
79229;SDS011;68663;49.122;17.544;2023-07-30T09:01:56;6.20;;;2.97;;
79229;SDS011;68663;49.122;17.544;2023-07-30T09:04:23;4.65;;;3.00;;
79229;SDS011;68663;49.122;17.544;2023-07-30T09:06:49;4.75;;;3.20;;
79229;SDS011;68663;49.122;17.544;2023-07-30T09:09:15;3.28;;;2.85;;
79229;SDS011;68663;49.122;17.544;2023-07-30T09:11:41;3.95;;;3.03;;
79229;SDS011;68663;49.122;17.544;2023-07-30T09:14:06;7.82;;;3.30;;
79229;SDS011;68663;49.122;17.544;2023-07-30T09:16:33;5.07;;;2.97;;
79229;SDS011;68663;49.122;17.544;2023-07-30T09:18:58;5.50;;;2.80;;
79229;SDS011;68663;49.122;17.544;2023-07-30T09:21:31;5.63;;;3.20;;
79229;SDS011;68663;49.122;17.544;2023-07-30T09:23:57;4.78;;;3.08;;
79229;SDS011;68663;49.122;17.544;2023-07-30T09:26:25;5.55;;;3.65;;
79229;SDS011;68663;49.122;17.544;2023-07-30T09:28:50;8.55;;;3.90;;
79229;SDS011;68663;49.122;17.544;2023-07-30T09:31:16;5.00;;;3.35;;
79229;SDS011;68663;49.122;17.544;2023-07-30T09:33:41;10.20;;;3.30;;
79229;SDS011;68663;49.122;17.544;2023-07-30T09:36:09;9.93;;;3.45;;
79229;SDS011;68663;49.122;17.544;2023-07-30T09:38:38;7.72;;;3.85;;
79229;SDS011;68663;49.122;17.544;2023-07-30T09:41:04;7.80;;;3.97;;
79229;SDS011;68663;49.122;17.544;2023-07-30T09:43:33;10.88;;;5.00;;
79229;SDS011;68663;49.122;17.544;2023-07-30T09:46:03;6.65;;;4.15;;
79229;SDS011;68663;49.122;17.544;2023-07-30T09:48:31;6.47;;;4.25;;
79229;SDS011;68663;49.122;17.544;2023-07-30T09:51:02;7.18;;;4.00;;
79229;SDS011;68663;49.122;17.544;2023-07-30T09:53:31;8.63;;;4.20;;
79229;SDS011;68663;49.122;17.544;2023-07-30T09:56:02;7.43;;;3.95;;
79229;SDS011;68663;49.122;17.544;2023-07-30T09:58:28;9.10;;;4.00;;
79229;SDS011;68663;49.122;17.544;2023-07-30T10:00:54;7.70;;;4.50;;
79229;SDS011;68663;49.122;17.544;2023-07-30T10:03:23;7.90;;;4.65;;
79229;SDS011;68663;49.122;17.544;2023-07-30T10:05:48;8.60;;;4.40;;
79229;SDS011;68663;49.122;17.544;2023-07-30T10:08:19;11.35;;;5.45;;
79229;SDS011;68663;49.122;17.544;2023-07-30T10:10:51;17.52;;;6.28;;
79229;SDS011;68663;49.122;17.544;2023-07-30T10:13:19;21.13;;;7.90;;
79229;SDS011;68663;49.122;17.544;2023-07-30T10:15:45;9.38;;;5.55;;
79229;SDS011;68663;49.122;17.544;2023-07-30T10:18:11;17.27;;;7.40;;
79229;SDS011;68663;49.122;17.544;2023-07-30T10:20:37;13.77;;;6.65;;
79229;SDS011;68663;49.122;17.544;2023-07-30T10:23:04;14.52;;;5.32;;
79229;SDS011;68663;49.122;17.544;2023-07-30T10:25:31;10.07;;;4.78;;
79229;SDS011;68663;49.122;17.544;2023-07-30T10:28:07;6.30;;;4.28;;
79229;SDS011;68663;49.122;17.544;2023-07-30T10:30:33;13.32;;;4.97;;
79229;SDS011;68663;49.122;17.544;2023-07-30T10:33:00;6.07;;;3.80;;
79229;SDS011;68663;49.122;17.544;2023-07-30T10:35:43;12.48;;;6.15;;
79229;SDS011;68663;49.122;17.544;2023-07-30T10:41:07;16.15;;;7.85;;
79229;SDS011;68663;49.122;17.544;2023-07-30T10:43:40;12.40;;;5.32;;
79229;SDS011;68663;49.122;17.544;2023-07-30T10:46:06;16.15;;;5.50;;
79229;SDS011;68663;49.122;17.544;2023-07-30T10:48:34;7.88;;;4.38;;
79229;SDS011;68663;49.122;17.544;2023-07-30T10:51:11;13.85;;;6.53;;
79229;SDS011;68663;49.122;17.544;2023-07-30T10:53:41;16.52;;;6.68;;
79229;SDS011;68663;49.122;17.544;2023-07-30T10:56:08;12.43;;;4.80;;
79229;SDS011;68663;49.122;17.544;2023-07-30T10:58:35;12.98;;;5.25;;
79229;SDS011;68663;49.122;17.544;2023-07-30T11:01:02;9.00;;;4.85;;
79229;SDS011;68663;49.122;17.544;2023-07-30T11:03:28;7.45;;;4.65;;
79229;SDS011;68663;49.122;17.544;2023-07-30T11:05:55;10.40;;;4.45;;
79229;SDS011;68663;49.122;17.544;2023-07-30T11:08:21;8.82;;;4.50;;
79229;SDS011;68663;49.122;17.544;2023-07-30T11:11:01;7.03;;;4.63;;
79229;SDS011;68663;49.122;17.544;2023-07-30T11:13:27;6.53;;;4.30;;
79229;SDS011;68663;49.122;17.544;2023-07-30T11:15:52;12.23;;;4.43;;
79229;SDS011;68663;49.122;17.544;2023-07-30T11:18:18;9.30;;;4.22;;
79229;SDS011;68663;49.122;17.544;2023-07-30T11:20:43;9.18;;;4.00;;
79229;SDS011;68663;49.122;17.544;2023-07-30T11:23:18;7.30;;;4.23;;
79229;SDS011;68663;49.122;17.544;2023-07-30T11:25:45;10.75;;;4.65;;
79229;SDS011;68663;49.122;17.544;2023-07-30T11:28:13;12.48;;;4.30;;
79229;SDS011;68663;49.122;17.544;2023-07-30T11:30:38;5.63;;;3.83;;
79229;SDS011;68663;49.122;17.544;2023-07-30T11:33:04;7.20;;;4.00;;
79229;SDS011;68663;49.122;17.544;2023-07-30T11:35:29;9.30;;;3.85;;
79229;SDS011;68663;49.122;17.544;2023-07-30T11:37:55;7.50;;;3.97;;
79229;SDS011;68663;49.122;17.544;2023-07-30T11:40:22;7.53;;;3.70;;
79229;SDS011;68663;49.122;17.544;2023-07-30T11:42:48;5.22;;;3.50;;
79229;SDS011;68663;49.122;17.544;2023-07-30T11:45:23;6.30;;;4.22;;
79229;SDS011;68663;49.122;17.544;2023-07-30T11:47:49;6.28;;;3.60;;
79229;SDS011;68663;49.122;17.544;2023-07-30T11:50:15;6.97;;;4.28;;
79229;SDS011;68663;49.122;17.544;2023-07-30T11:52:56;5.93;;;3.60;;
79229;SDS011;68663;49.122;17.544;2023-07-30T11:55:22;5.05;;;3.90;;
79229;SDS011;68663;49.122;17.544;2023-07-30T11:57:49;6.93;;;3.70;;
79229;SDS011;68663;49.122;17.544;2023-07-30T12:00:15;5.90;;;3.40;;
79229;SDS011;68663;49.122;17.544;2023-07-30T12:02:41;4.60;;;3.33;;
79229;SDS011;68663;49.122;17.544;2023-07-30T12:05:09;5.25;;;3.42;;
79229;SDS011;68663;49.122;17.544;2023-07-30T12:07:39;7.70;;;4.03;;
79229;SDS011;68663;49.122;17.544;2023-07-30T12:10:08;5.47;;;3.40;;
79229;SDS011;68663;49.122;17.544;2023-07-30T12:12:35;3.38;;;2.92;;
79229;SDS011;68663;49.122;17.544;2023-07-30T12:15:00;3.55;;;3.10;;
79229;SDS011;68663;49.122;17.544;2023-07-30T12:17:26;4.63;;;3.47;;
79229;SDS011;68663;49.122;17.544;2023-07-30T12:19:51;5.40;;;3.17;;
79229;SDS011;68663;49.122;17.544;2023-07-30T12:22:16;4.00;;;3.25;;
79229;SDS011;68663;49.122;17.544;2023-07-30T12:24:42;3.90;;;3.08;;
79229;SDS011;68663;49.122;17.544;2023-07-30T12:27:07;5.15;;;3.45;;
79229;SDS011;68663;49.122;17.544;2023-07-30T12:29:33;3.15;;;2.85;;
79229;SDS011;68663;49.122;17.544;2023-07-30T12:31:58;5.40;;;3.45;;
79229;SDS011;68663;49.122;17.544;2023-07-30T12:34:24;5.20;;;3.97;;
79229;SDS011;68663;49.122;17.544;2023-07-30T12:36:49;7.25;;;3.50;;
79229;SDS011;68663;49.122;17.544;2023-07-30T12:39:15;5.70;;;3.13;;
79229;SDS011;68663;49.122;17.544;2023-07-30T12:41:40;7.28;;;3.72;;
79229;SDS011;68663;49.122;17.544;2023-07-30T12:44:06;7.88;;;3.60;;
79229;SDS011;68663;49.122;17.544;2023-07-30T12:46:31;8.48;;;3.85;;
79229;SDS011;68663;49.122;17.544;2023-07-30T12:48:58;16.15;;;4.07;;
79229;SDS011;68663;49.122;17.544;2023-07-30T12:51:29;8.57;;;4.65;;
79229;SDS011;68663;49.122;17.544;2023-07-30T12:53:57;9.90;;;5.45;;
79229;SDS011;68663;49.122;17.544;2023-07-30T12:56:23;8.75;;;4.40;;
79229;SDS011;68663;49.122;17.544;2023-07-30T12:58:48;10.18;;;4.47;;
79229;SDS011;68663;49.122;17.544;2023-07-30T13:01:14;7.57;;;3.95;;
79229;SDS011;68663;49.122;17.544;2023-07-30T13:03:39;8.63;;;4.05;;
79229;SDS011;68663;49.122;17.544;2023-07-30T13:06:10;6.55;;;3.92;;
79229;SDS011;68663;49.122;17.544;2023-07-30T13:08:35;7.03;;;3.65;;
79229;SDS011;68663;49.122;17.544;2023-07-30T13:11:01;11.88;;;3.63;;
79229;SDS011;68663;49.122;17.544;2023-07-30T13:13:26;6.47;;;3.60;;
79229;SDS011;68663;49.122;17.544;2023-07-30T13:15:52;4.28;;;2.92;;
79229;SDS011;68663;49.122;17.544;2023-07-30T13:18:17;5.40;;;2.50;;
79229;SDS011;68663;49.122;17.544;2023-07-30T13:20:43;4.72;;;2.72;;
79229;SDS011;68663;49.122;17.544;2023-07-30T13:23:08;4.07;;;2.47;;
79229;SDS011;68663;49.122;17.544;2023-07-30T13:25:33;7.93;;;2.30;;
79229;SDS011;68663;49.122;17.544;2023-07-30T13:27:59;7.18;;;2.45;;
79229;SDS011;68663;49.122;17.544;2023-07-30T13:30:24;3.33;;;1.93;;
79229;SDS011;68663;49.122;17.544;2023-07-30T13:32:50;6.25;;;2.47;;
79229;SDS011;68663;49.122;17.544;2023-07-30T13:35:15;4.77;;;2.30;;
79229;SDS011;68663;49.122;17.544;2023-07-30T13:37:40;5.35;;;2.03;;
79229;SDS011;68663;49.122;17.544;2023-07-30T13:40:06;2.78;;;2.15;;
79229;SDS011;68663;49.122;17.544;2023-07-30T13:42:32;3.22;;;2.20;;
79229;SDS011;68663;49.122;17.544;2023-07-30T13:44:57;4.50;;;1.97;;
79229;SDS011;68663;49.122;17.544;2023-07-30T13:47:23;2.28;;;1.73;;
79229;SDS011;68663;49.122;17.544;2023-07-30T13:49:48;2.92;;;1.65;;
79229;SDS011;68663;49.122;17.544;2023-07-30T13:52:14;2.40;;;1.90;;
79229;SDS011;68663;49.122;17.544;2023-07-30T13:54:40;3.63;;;2.10;;
79229;SDS011;68663;49.122;17.544;2023-07-30T13:57:07;4.57;;;2.20;;
79229;SDS011;68663;49.122;17.544;2023-07-30T13:59:32;4.65;;;2.20;;
79229;SDS011;68663;49.122;17.544;2023-07-30T14:01:58;2.72;;;1.88;;
79229;SDS011;68663;49.122;17.544;2023-07-30T14:04:23;2.33;;;2.00;;
79229;SDS011;68663;49.122;17.544;2023-07-30T14:06:49;3.03;;;2.00;;
79229;SDS011;68663;49.122;17.544;2023-07-30T14:09:14;4.07;;;2.00;;
79229;SDS011;68663;49.122;17.544;2023-07-30T14:11:40;5.63;;;2.35;;
79229;SDS011;68663;49.122;17.544;2023-07-30T14:14:09;3.17;;;1.98;;
79229;SDS011;68663;49.122;17.544;2023-07-30T14:16:35;6.78;;;2.80;;
79229;SDS011;68663;49.122;17.544;2023-07-30T14:19:01;2.80;;;2.28;;
79229;SDS011;68663;49.122;17.544;2023-07-30T14:21:27;7.90;;;2.72;;
79229;SDS011;68663;49.122;17.544;2023-07-30T14:23:53;2.85;;;2.05;;
79229;SDS011;68663;49.122;17.544;2023-07-30T14:26:18;3.90;;;2.45;;
79229;SDS011;68663;49.122;17.544;2023-07-30T14:28:43;7.53;;;2.35;;
79229;SDS011;68663;49.122;17.544;2023-07-30T14:31:09;6.00;;;2.40;;